Terminal Aerodrome Forecast
Issued by NWS Tampa Bay Area, FL

Home | Current Version | Previous Version | Text Only | Print | Product List | Glossary On
Versions: 1 2 3 4 5 6 7 8 9 10 11 12 13 14 15
000
FTUS42 KTBW 012300
TAFFMY
TAF
KFMY 012331Z 0200/0224 00000KT P6SM FEW050 SCT100 SCT250
     FM020300 00000KT P6SM SCT250
     FM021400 10006KT P6SM SCT250
     FM021700 09007KT P6SM VCTS SCT050CB SCT250
     FM022100 14005KT P6SM VCTS SCT060CB SCT250=

USA.gov is the U.S. government's official web portal to all federal, state and local government web resources and services.